sensor_id;sensor_type;location;lat;lon;timestamp;pressure;altitude;pressure_sealevel;temperature;humidity
46682;BME280;34101;53.430;-2.224;2023-06-24T00:01:37;101706.06;;;21.45;63.63
46682;BME280;34101;53.430;-2.224;2023-06-24T00:04:04;101702.01;;;21.30;64.29
46682;BME280;34101;53.430;-2.224;2023-06-24T00:06:32;101707.15;;;21.44;64.05
46682;BME280;34101;53.430;-2.224;2023-06-24T00:08:59;101704.65;;;21.28;64.80
46682;BME280;34101;53.430;-2.224;2023-06-24T00:11:28;101703.81;;;21.44;64.27
46682;BME280;34101;53.430;-2.224;2023-06-24T00:13:56;101701.61;;;21.36;64.60
46682;BME280;34101;53.430;-2.224;2023-06-24T00:16:25;101699.71;;;21.15;65.60
46682;BME280;34101;53.430;-2.224;2023-06-24T00:18:54;101696.50;;;21.04;66.57
46682;BME280;34101;53.430;-2.224;2023-06-24T00:21:22;101699.58;;;21.27;65.82
46682;BME280;34101;53.430;-2.224;2023-06-24T00:23:49;101707.21;;;21.11;66.64
46682;BME280;34101;53.430;-2.224;2023-06-24T00:26:16;101707.91;;;21.10;67.23
46682;BME280;34101;53.430;-2.224;2023-06-24T00:28:44;101705.85;;;21.18;66.88
46682;BME280;34101;53.430;-2.224;2023-06-24T00:31:11;101706.33;;;21.16;66.68
46682;BME280;34101;53.430;-2.224;2023-06-24T00:33:39;101706.99;;;21.02;67.45
46682;BME280;34101;53.430;-2.224;2023-06-24T00:36:06;101709.40;;;20.99;67.44
46682;BME280;34101;53.430;-2.224;2023-06-24T00:38:34;101709.96;;;21.18;66.97
46682;BME280;34101;53.430;-2.224;2023-06-24T00:41:02;101706.24;;;20.98;67.49
46682;BME280;34101;53.430;-2.224;2023-06-24T00:43:29;101710.24;;;20.96;67.63
46682;BME280;34101;53.430;-2.224;2023-06-24T00:45:57;101715.74;;;21.08;67.54
46682;BME280;34101;53.430;-2.224;2023-06-24T00:48:25;101723.88;;;20.97;68.03
46682;BME280;34101;53.430;-2.224;2023-06-24T00:50:53;101724.47;;;20.57;70.20
46682;BME280;34101;53.430;-2.224;2023-06-24T00:53:20;101724.87;;;20.80;69.74
46682;BME280;34101;53.430;-2.224;2023-06-24T00:55:48;101726.25;;;20.70;70.20
46682;BME280;34101;53.430;-2.224;2023-06-24T00:58:15;101724.11;;;20.69;70.44
46682;BME280;34101;53.430;-2.224;2023-06-24T01:00:51;101724.12;;;20.82;69.30
46682;BME280;34101;53.430;-2.224;2023-06-24T01:03:18;101720.31;;;20.73;69.72
46682;BME280;34101;53.430;-2.224;2023-06-24T01:05:45;101715.33;;;20.93;69.18
46682;BME280;34101;53.430;-2.224;2023-06-24T01:08:13;101712.85;;;20.95;68.96
46682;BME280;34101;53.430;-2.224;2023-06-24T01:10:40;101711.77;;;20.99;68.70
46682;BME280;34101;53.430;-2.224;2023-06-24T01:13:08;101709.44;;;20.84;68.95
46682;BME280;34101;53.430;-2.224;2023-06-24T01:15:35;101714.59;;;20.86;69.21
46682;BME280;34101;53.430;-2.224;2023-06-24T01:18:09;101713.69;;;20.64;69.97
46682;BME280;34101;53.430;-2.224;2023-06-24T01:20:44;101714.13;;;20.79;69.30
46682;BME280;34101;53.430;-2.224;2023-06-24T01:23:32;101719.00;;;20.72;69.58
46682;BME280;34101;53.430;-2.224;2023-06-24T01:26:21;101716.74;;;20.65;69.70
46682;BME280;34101;53.430;-2.224;2023-06-24T01:29:09;101713.10;;;20.66;69.88
46682;BME280;34101;53.430;-2.224;2023-06-24T01:31:44;101715.24;;;20.85;69.25
46682;BME280;34101;53.430;-2.224;2023-06-24T01:34:22;101717.77;;;20.80;69.55
46682;BME280;34101;53.430;-2.224;2023-06-24T01:36:57;101716.48;;;20.95;69.17
46682;BME280;34101;53.430;-2.224;2023-06-24T01:39:28;101710.85;;;20.92;69.21
46682;BME280;34101;53.430;-2.224;2023-06-24T01:42:03;101704.86;;;20.86;69.50
46682;BME280;34101;53.430;-2.224;2023-06-24T01:44:34;101709.84;;;20.81;69.98
46682;BME280;34101;53.430;-2.224;2023-06-24T01:47:07;101705.49;;;20.85;69.80
46682;BME280;34101;53.430;-2.224;2023-06-24T01:49:37;101702.56;;;20.96;69.29
46682;BME280;34101;53.430;-2.224;2023-06-24T01:52:07;101699.73;;;20.84;69.95
46682;BME280;34101;53.430;-2.224;2023-06-24T01:54:35;101700.72;;;20.92;69.61
46682;BME280;34101;53.430;-2.224;2023-06-24T01:57:06;101703.78;;;20.70;70.39
46682;BME280;34101;53.430;-2.224;2023-06-24T01:59:38;101698.98;;;20.94;69.40
46682;BME280;34101;53.430;-2.224;2023-06-24T02:02:08;101701.97;;;20.84;69.71
46682;BME280;34101;53.430;-2.224;2023-06-24T02:04:35;101699.10;;;20.93;69.34
46682;BME280;34101;53.430;-2.224;2023-06-24T02:07:04;101693.97;;;21.00;69.17
46682;BME280;34101;53.430;-2.224;2023-06-24T02:09:33;101694.05;;;20.81;69.76
46682;BME280;34101;53.430;-2.224;2023-06-24T02:12:03;101691.72;;;20.93;69.38
46682;BME280;34101;53.430;-2.224;2023-06-24T02:14:31;101687.60;;;20.97;69.14
46682;BME280;34101;53.430;-2.224;2023-06-24T02:17:01;101687.05;;;20.92;69.25
46682;BME280;34101;53.430;-2.224;2023-06-24T02:19:30;101689.08;;;20.86;69.51
46682;BME280;34101;53.430;-2.224;2023-06-24T02:21:59;101686.14;;;20.74;69.89
46682;BME280;34101;53.430;-2.224;2023-06-24T02:24:28;101695.52;;;20.85;69.58
46682;BME280;34101;53.430;-2.224;2023-06-24T02:26:56;101691.34;;;20.47;70.93
46682;BME280;34101;53.430;-2.224;2023-06-24T02:29:26;101681.93;;;20.63;70.17
46682;BME280;34101;53.430;-2.224;2023-06-24T02:31:54;101680.09;;;20.55;70.31
46682;BME280;34101;53.430;-2.224;2023-06-24T02:34:23;101685.71;;;20.55;70.37
46682;BME280;34101;53.430;-2.224;2023-06-24T02:36:51;101679.54;;;20.51;70.61
46682;BME280;34101;53.430;-2.224;2023-06-24T02:39:18;101677.78;;;20.30;71.68
46682;BME280;34101;53.430;-2.224;2023-06-24T02:41:46;101676.11;;;20.57;70.62
46682;BME280;34101;53.430;-2.224;2023-06-24T02:44:13;101674.50;;;20.64;70.35
46682;BME280;34101;53.430;-2.224;2023-06-24T02:46:41;101673.44;;;20.75;69.88
46682;BME280;34101;53.430;-2.224;2023-06-24T02:49:10;101675.00;;;20.43;71.27
46682;BME280;34101;53.430;-2.224;2023-06-24T02:51:39;101673.83;;;20.70;70.25
46682;BME280;34101;53.430;-2.224;2023-06-24T02:54:08;101674.95;;;20.71;70.32
46682;BME280;34101;53.430;-2.224;2023-06-24T02:56:37;101671.69;;;20.59;70.63
46682;BME280;34101;53.430;-2.224;2023-06-24T02:59:05;101675.42;;;20.68;70.46
46682;BME280;34101;53.430;-2.224;2023-06-24T03:01:32;101675.08;;;20.71;70.31
46682;BME280;34101;53.430;-2.224;2023-06-24T03:03:59;101675.18;;;20.75;69.98
46682;BME280;34101;53.430;-2.224;2023-06-24T03:06:32;101672.54;;;20.73;70.26
46682;BME280;34101;53.430;-2.224;2023-06-24T03:08:59;101671.81;;;20.57;71.00
46682;BME280;34101;53.430;-2.224;2023-06-24T03:11:27;101672.10;;;20.79;69.93
46682;BME280;34101;53.430;-2.224;2023-06-24T03:13:54;101671.40;;;20.78;70.17
46682;BME280;34101;53.430;-2.224;2023-06-24T03:16:22;101673.44;;;20.85;69.95
46682;BME280;34101;53.430;-2.224;2023-06-24T03:18:49;101676.15;;;20.87;69.78
46682;BME280;34101;53.430;-2.224;2023-06-24T03:21:16;101669.67;;;20.73;70.36
46682;BME280;34101;53.430;-2.224;2023-06-24T03:23:44;101669.61;;;20.83;69.93
46682;BME280;34101;53.430;-2.224;2023-06-24T03:26:11;101669.81;;;20.86;69.51
46682;BME280;34101;53.430;-2.224;2023-06-24T03:28:39;101672.31;;;20.91;69.66
46682;BME280;34101;53.430;-2.224;2023-06-24T03:31:06;101673.06;;;20.87;69.99
46682;BME280;34101;53.430;-2.224;2023-06-24T03:33:34;101672.50;;;20.73;70.92
46682;BME280;34101;53.430;-2.224;2023-06-24T03:36:01;101672.25;;;20.86;70.45
46682;BME280;34101;53.430;-2.224;2023-06-24T03:38:28;101665.70;;;20.61;71.33
46682;BME280;34101;53.430;-2.224;2023-06-24T03:40:56;101665.64;;;20.74;70.87
46682;BME280;34101;53.430;-2.224;2023-06-24T03:43:24;101664.04;;;20.52;72.20
46682;BME280;34101;53.430;-2.224;2023-06-24T03:45:51;101663.79;;;20.41;72.32
46682;BME280;34101;53.430;-2.224;2023-06-24T03:48:18;101654.62;;;20.53;71.84
46682;BME280;34101;53.430;-2.224;2023-06-24T03:50:46;101649.49;;;20.41;72.13
46682;BME280;34101;53.430;-2.224;2023-06-24T03:53:13;101646.36;;;20.10;73.74
46682;BME280;34101;53.430;-2.224;2023-06-24T03:55:40;101647.79;;;20.41;72.44
46682;BME280;34101;53.430;-2.224;2023-06-24T03:58:08;101649.84;;;20.37;72.24
46682;BME280;34101;53.430;-2.224;2023-06-24T04:00:35;101645.87;;;20.19;73.16
46682;BME280;34101;53.430;-2.224;2023-06-24T04:03:03;101646.92;;;20.27;73.11
46682;BME280;34101;53.430;-2.224;2023-06-24T04:05:30;101649.45;;;20.38;72.36
46682;BME280;34101;53.430;-2.224;2023-06-24T04:07:58;101650.70;;;20.42;72.32
46682;BME280;34101;53.430;-2.224;2023-06-24T04:10:26;101653.31;;;20.32;72.79
46682;BME280;34101;53.430;-2.224;2023-06-24T04:12:53;101655.90;;;20.30;72.70
46682;BME280;34101;53.430;-2.224;2023-06-24T04:15:21;101660.83;;;20.29;72.87
46682;BME280;34101;53.430;-2.224;2023-06-24T04:17:48;101664.06;;;20.32;72.98
46682;BME280;34101;53.430;-2.224;2023-06-24T04:20:16;101665.05;;;20.12;73.67
46682;BME280;34101;53.430;-2.224;2023-06-24T04:22:43;101667.68;;;20.29;73.13
46682;BME280;34101;53.430;-2.224;2023-06-24T04:25:11;101669.70;;;20.45;72.72
46682;BME280;34101;53.430;-2.224;2023-06-24T04:27:38;101662.83;;;20.61;71.96
46682;BME280;34101;53.430;-2.224;2023-06-24T04:30:06;101661.35;;;20.70;71.37
46682;BME280;34101;53.430;-2.224;2023-06-24T04:32:34;101666.77;;;20.67;71.48
46682;BME280;34101;53.430;-2.224;2023-06-24T04:35:07;101671.78;;;20.69;71.46
46682;BME280;34101;53.430;-2.224;2023-06-24T04:37:34;101678.24;;;20.46;72.50
46682;BME280;34101;53.430;-2.224;2023-06-24T04:40:01;101673.21;;;20.68;71.63
46682;BME280;34101;53.430;-2.224;2023-06-24T04:42:28;101674.36;;;20.79;71.05
46682;BME280;34101;53.430;-2.224;2023-06-24T04:44:56;101673.69;;;20.77;71.23
46682;BME280;34101;53.430;-2.224;2023-06-24T04:47:24;101673.98;;;20.81;71.00
46682;BME280;34101;53.430;-2.224;2023-06-24T04:49:52;101675.77;;;20.87;71.00
46682;BME280;34101;53.430;-2.224;2023-06-24T04:52:19;101674.11;;;20.69;71.23
46682;BME280;34101;53.430;-2.224;2023-06-24T04:54:47;101675.99;;;20.71;71.46
46682;BME280;34101;53.430;-2.224;2023-06-24T04:57:25;101676.64;;;20.71;71.28
46682;BME280;34101;53.430;-2.224;2023-06-24T04:59:52;101678.73;;;20.73;71.37
46682;BME280;34101;53.430;-2.224;2023-06-24T05:02:26;101679.30;;;20.72;71.29
46682;BME280;34101;53.430;-2.224;2023-06-24T05:04:54;101682.51;;;20.54;72.01
46682;BME280;34101;53.430;-2.224;2023-06-24T05:07:21;101677.64;;;20.53;72.37
46682;BME280;34101;53.430;-2.224;2023-06-24T05:09:49;101678.01;;;20.65;71.73
46682;BME280;34101;53.430;-2.224;2023-06-24T05:12:17;101680.59;;;20.62;71.95
46682;BME280;34101;53.430;-2.224;2023-06-24T05:14:44;101677.82;;;20.67;71.53
46682;BME280;34101;53.430;-2.224;2023-06-24T05:17:16;101676.94;;;20.56;72.04
46682;BME280;34101;53.430;-2.224;2023-06-24T05:19:44;101684.67;;;20.59;72.03
46682;BME280;34101;53.430;-2.224;2023-06-24T05:22:11;101682.60;;;20.64;71.85
46682;BME280;34101;53.430;-2.224;2023-06-24T05:24:38;101679.58;;;20.65;71.77
46682;BME280;34101;53.430;-2.224;2023-06-24T05:27:06;101684.25;;;20.75;71.54
46682;BME280;34101;53.430;-2.224;2023-06-24T05:29:34;101676.69;;;20.60;71.96
46682;BME280;34101;53.430;-2.224;2023-06-24T05:32:01;101684.69;;;20.51;72.27
46682;BME280;34101;53.430;-2.224;2023-06-24T05:34:29;101686.13;;;20.55;72.10
46682;BME280;34101;53.430;-2.224;2023-06-24T05:36:56;101686.09;;;20.50;72.22
46682;BME280;34101;53.430;-2.224;2023-06-24T05:39:25;101687.79;;;20.44;72.58
46682;BME280;34101;53.430;-2.224;2023-06-24T05:41:52;101691.22;;;20.25;73.49
46682;BME280;34101;53.430;-2.224;2023-06-24T05:44:20;101689.86;;;20.52;72.64
46682;BME280;34101;53.430;-2.224;2023-06-24T05:46:47;101694.43;;;20.50;72.90
46682;BME280;34101;53.430;-2.224;2023-06-24T05:49:15;101691.14;;;20.70;72.11
46682;BME280;34101;53.430;-2.224;2023-06-24T05:51:42;101695.78;;;20.78;71.94
46682;BME280;34101;53.430;-2.224;2023-06-24T05:54:10;101691.12;;;20.88;71.46
46682;BME280;34101;53.430;-2.224;2023-06-24T05:56:38;101692.71;;;20.94;71.24
46682;BME280;34101;53.430;-2.224;2023-06-24T05:59:05;101692.48;;;20.99;71.25
46682;BME280;34101;53.430;-2.224;2023-06-24T06:01:33;101693.35;;;20.92;71.52
46682;BME280;34101;53.430;-2.224;2023-06-24T06:04:00;101695.74;;;21.14;70.64
46682;BME280;34101;53.430;-2.224;2023-06-24T06:06:38;101695.36;;;21.02;71.30
46682;BME280;34101;53.430;-2.224;2023-06-24T06:09:05;101701.08;;;21.03;71.10
46682;BME280;34101;53.430;-2.224;2023-06-24T06:11:43;101704.63;;;21.26;70.38
46682;BME280;34101;53.430;-2.224;2023-06-24T06:14:21;101702.10;;;21.37;69.96
46682;BME280;34101;53.430;-2.224;2023-06-24T06:16:49;101705.06;;;21.15;70.68
46682;BME280;34101;53.430;-2.224;2023-06-24T06:19:16;101708.11;;;21.22;70.83
46682;BME280;34101;53.430;-2.224;2023-06-24T06:21:44;101705.77;;;21.43;70.11
46682;BME280;34101;53.430;-2.224;2023-06-24T06:24:11;101710.15;;;21.53;69.68
46682;BME280;34101;53.430;-2.224;2023-06-24T06:26:42;101706.20;;;21.66;69.55
46682;BME280;34101;53.430;-2.224;2023-06-24T06:29:15;101706.04;;;21.90;68.40
46682;BME280;34101;53.430;-2.224;2023-06-24T06:31:42;101710.46;;;21.84;68.82
46682;BME280;34101;53.430;-2.224;2023-06-24T06:34:10;101704.43;;;21.67;69.12
46682;BME280;34101;53.430;-2.224;2023-06-24T06:36:37;101711.32;;;21.63;69.15
46682;BME280;34101;53.430;-2.224;2023-06-24T06:39:20;101713.05;;;22.08;67.60
46682;BME280;34101;53.430;-2.224;2023-06-24T06:41:48;101716.64;;;22.11;67.28
46682;BME280;34101;53.430;-2.224;2023-06-24T06:44:15;101713.97;;;22.33;67.06
46682;BME280;34101;53.430;-2.224;2023-06-24T06:46:42;101711.22;;;22.04;67.40
46682;BME280;34101;53.430;-2.224;2023-06-24T06:49:10;101712.50;;;22.11;67.24
46682;BME280;34101;53.430;-2.224;2023-06-24T06:51:42;101717.04;;;22.10;67.55
46682;BME280;34101;53.430;-2.224;2023-06-24T06:54:10;101715.28;;;21.91;67.70
46682;BME280;34101;53.430;-2.224;2023-06-24T06:56:37;101716.94;;;22.29;67.25
46682;BME280;34101;53.430;-2.224;2023-06-24T06:59:05;101712.36;;;22.50;65.86
46682;BME280;34101;53.430;-2.224;2023-06-24T07:01:32;101713.88;;;22.59;65.69
46682;BME280;34101;53.430;-2.224;2023-06-24T07:04:00;101719.83;;;22.30;66.24
46682;BME280;34101;53.430;-2.224;2023-06-24T07:06:32;101715.92;;;22.63;65.53
46682;BME280;34101;53.430;-2.224;2023-06-24T07:08:59;101721.00;;;22.41;65.86
46682;BME280;34101;53.430;-2.224;2023-06-24T07:11:32;101723.26;;;22.21;66.46
46682;BME280;34101;53.430;-2.224;2023-06-24T07:13:59;101730.92;;;22.52;65.36
46682;BME280;34101;53.430;-2.224;2023-06-24T07:16:27;101735.26;;;22.41;65.97
46682;BME280;34101;53.430;-2.224;2023-06-24T07:18:55;101739.51;;;22.43;65.81
46682;BME280;34101;53.430;-2.224;2023-06-24T07:21:22;101738.22;;;22.77;64.74
46682;BME280;34101;53.430;-2.224;2023-06-24T07:23:50;101734.66;;;22.84;64.89
46682;BME280;34101;53.430;-2.224;2023-06-24T07:26:17;101733.36;;;22.83;64.58
46682;BME280;34101;53.430;-2.224;2023-06-24T07:28:50;101731.46;;;23.22;63.27
46682;BME280;34101;53.430;-2.224;2023-06-24T07:31:17;101739.42;;;23.18;62.76
46682;BME280;34101;53.430;-2.224;2023-06-24T07:33:45;101740.93;;;23.05;63.49
46682;BME280;34101;53.430;-2.224;2023-06-24T07:36:12;101741.36;;;23.47;62.31
46682;BME280;34101;53.430;-2.224;2023-06-24T07:38:39;101744.26;;;23.00;63.66
46682;BME280;34101;53.430;-2.224;2023-06-24T07:41:07;101740.31;;;22.55;64.60
46682;BME280;34101;53.430;-2.224;2023-06-24T07:43:34;101736.95;;;22.85;64.61
46682;BME280;34101;53.430;-2.224;2023-06-24T07:46:02;101744.39;;;23.22;63.15
46682;BME280;34101;53.430;-2.224;2023-06-24T07:48:29;101748.19;;;22.64;65.19
46682;BME280;34101;53.430;-2.224;2023-06-24T07:50:57;101746.36;;;23.17;63.53
46682;BME280;34101;53.430;-2.224;2023-06-24T07:53:25;101747.29;;;22.87;64.29
46682;BME280;34101;53.430;-2.224;2023-06-24T07:55:52;101745.63;;;22.66;65.01
46682;BME280;34101;53.430;-2.224;2023-06-24T07:58:20;101741.57;;;22.78;64.77
46682;BME280;34101;53.430;-2.224;2023-06-24T08:00:47;101739.42;;;23.17;63.77
46682;BME280;34101;53.430;-2.224;2023-06-24T08:03:14;101741.81;;;23.41;62.78
46682;BME280;34101;53.430;-2.224;2023-06-24T08:05:42;101744.58;;;23.43;62.56
46682;BME280;34101;53.430;-2.224;2023-06-24T08:08:09;101742.04;;;23.18;63.25
46682;BME280;34101;53.430;-2.224;2023-06-24T08:10:36;101745.01;;;23.04;64.18
46682;BME280;34101;53.430;-2.224;2023-06-24T08:13:04;101745.19;;;23.60;62.66
46682;BME280;34101;53.430;-2.224;2023-06-24T08:15:31;101752.08;;;23.78;62.54
46682;BME280;34101;53.430;-2.224;2023-06-24T08:17:59;101750.80;;;23.37;63.05
46682;BME280;34101;53.430;-2.224;2023-06-24T08:20:27;101752.64;;;23.72;62.63
46682;BME280;34101;53.430;-2.224;2023-06-24T08:22:54;101747.68;;;23.98;61.33
46682;BME280;34101;53.430;-2.224;2023-06-24T08:25:21;101748.46;;;24.09;60.99
46682;BME280;34101;53.430;-2.224;2023-06-24T08:27:49;101753.33;;;23.71;61.87
46682;BME280;34101;53.430;-2.224;2023-06-24T08:30:16;101752.57;;;23.86;61.70
46682;BME280;34101;53.430;-2.224;2023-06-24T08:32:44;101749.44;;;24.05;60.91
46682;BME280;34101;53.430;-2.224;2023-06-24T08:35:12;101749.68;;;24.19;60.89
46682;BME280;34101;53.430;-2.224;2023-06-24T08:37:40;101747.47;;;24.80;59.20
46682;BME280;34101;53.430;-2.224;2023-06-24T08:40:07;101747.91;;;25.10;57.79
46682;BME280;34101;53.430;-2.224;2023-06-24T08:42:35;101745.02;;;25.44;56.40
46682;BME280;34101;53.430;-2.224;2023-06-24T08:45:02;101743.46;;;24.46;59.13
46682;BME280;34101;53.430;-2.224;2023-06-24T08:47:30;101743.78;;;24.44;60.01
46682;BME280;34101;53.430;-2.224;2023-06-24T08:50:02;101743.48;;;24.73;58.77
46682;BME280;34101;53.430;-2.224;2023-06-24T08:52:32;101731.52;;;25.26;57.06
46682;BME280;34101;53.430;-2.224;2023-06-24T08:55:03;101734.54;;;25.35;57.05
46682;BME280;34101;53.430;-2.224;2023-06-24T08:57:31;101730.65;;;25.12;57.78
46682;BME280;34101;53.430;-2.224;2023-06-24T08:59:59;101731.72;;;24.87;58.66
46682;BME280;34101;53.430;-2.224;2023-06-24T09:02:27;101734.57;;;24.97;58.83
46682;BME280;34101;53.430;-2.224;2023-06-24T09:04:54;101731.43;;;24.70;58.68
46682;BME280;34101;53.430;-2.224;2023-06-24T09:07:26;101735.05;;;23.83;60.92
46682;BME280;34101;53.430;-2.224;2023-06-24T09:09:54;101734.12;;;24.12;60.79
46682;BME280;34101;53.430;-2.224;2023-06-24T09:12:21;101729.66;;;23.91;61.58
46682;BME280;34101;53.430;-2.224;2023-06-24T09:14:50;101719.53;;;24.52;59.64
46682;BME280;34101;53.430;-2.224;2023-06-24T09:17:17;101715.24;;;24.57;60.06
46682;BME280;34101;53.430;-2.224;2023-06-24T09:19:44;101716.42;;;24.66;58.96
46682;BME280;34101;53.430;-2.224;2023-06-24T09:22:12;101718.69;;;24.65;59.02
46682;BME280;34101;53.430;-2.224;2023-06-24T09:24:39;101718.76;;;24.72;58.67
46682;BME280;34101;53.430;-2.224;2023-06-24T09:27:07;101720.67;;;24.99;57.99
46682;BME280;34101;53.430;-2.224;2023-06-24T09:29:35;101719.16;;;24.87;58.53
46682;BME280;34101;53.430;-2.224;2023-06-24T09:32:05;101725.32;;;24.47;59.16
46682;BME280;34101;53.430;-2.224;2023-06-24T09:34:33;101719.43;;;24.25;59.68
46682;BME280;34101;53.430;-2.224;2023-06-24T09:37:01;101722.63;;;24.28;60.23
46682;BME280;34101;53.430;-2.224;2023-06-24T09:39:30;101719.47;;;24.21;60.42
46682;BME280;34101;53.430;-2.224;2023-06-24T09:42:02;101723.72;;;24.49;60.07
46682;BME280;34101;53.430;-2.224;2023-06-24T09:44:31;101726.40;;;24.37;60.34
46682;BME280;34101;53.430;-2.224;2023-06-24T09:46:58;101725.38;;;24.76;59.58
46682;BME280;34101;53.430;-2.224;2023-06-24T09:49:26;101725.23;;;24.39;60.39
46682;BME280;34101;53.430;-2.224;2023-06-24T09:51:56;101730.67;;;24.60;60.51
46682;BME280;34101;53.430;-2.224;2023-06-24T09:54:26;101736.87;;;23.67;62.87
46682;BME280;34101;53.430;-2.224;2023-06-24T09:56:55;101735.66;;;23.99;62.44
46682;BME280;34101;53.430;-2.224;2023-06-24T09:59:27;101728.03;;;24.41;61.17
46682;BME280;34101;53.430;-2.224;2023-06-24T10:01:55;101727.23;;;24.28;61.46
46682;BME280;34101;53.430;-2.224;2023-06-24T10:04:25;101725.98;;;24.69;60.19
46682;BME280;34101;53.430;-2.224;2023-06-24T10:06:54;101728.26;;;25.02;59.41
46682;BME280;34101;53.430;-2.224;2023-06-24T10:09:21;101724.33;;;25.06;59.06
46682;BME280;34101;53.430;-2.224;2023-06-24T10:11:49;101721.94;;;25.20;58.31
46682;BME280;34101;53.430;-2.224;2023-06-24T10:14:16;101719.53;;;25.32;57.58
46682;BME280;34101;53.430;-2.224;2023-06-24T10:16:44;101718.24;;;25.05;58.30
46682;BME280;34101;53.430;-2.224;2023-06-24T10:19:19;101718.81;;;25.13;57.94
46682;BME280;34101;53.430;-2.224;2023-06-24T10:21:49;101720.66;;;25.04;58.41
46682;BME280;34101;53.430;-2.224;2023-06-24T10:24:29;101722.32;;;24.69;59.01
46682;BME280;34101;53.430;-2.224;2023-06-24T10:27:02;101726.09;;;24.71;59.53
46682;BME280;34101;53.430;-2.224;2023-06-24T10:29:34;101727.27;;;25.09;58.35
46682;BME280;34101;53.430;-2.224;2023-06-24T10:32:03;101731.88;;;25.09;58.48
46682;BME280;34101;53.430;-2.224;2023-06-24T10:34:32;101732.69;;;25.14;57.82
46682;BME280;34101;53.430;-2.224;2023-06-24T10:37:02;101734.10;;;25.05;57.15
46682;BME280;34101;53.430;-2.224;2023-06-24T10:40:02;101731.10;;;25.45;56.59
46682;BME280;34101;53.430;-2.224;2023-06-24T10:42:31;101727.30;;;25.51;56.88
46682;BME280;34101;53.430;-2.224;2023-06-24T10:45:00;101733.27;;;25.44;57.10
46682;BME280;34101;53.430;-2.224;2023-06-24T10:47:29;101730.38;;;25.63;56.31
46682;BME280;34101;53.430;-2.224;2023-06-24T10:49:57;101730.81;;;25.68;56.10
46682;BME280;34101;53.430;-2.224;2023-06-24T10:52:25;101726.31;;;25.16;56.15
46682;BME280;34101;53.430;-2.224;2023-06-24T10:54:53;101723.59;;;25.53;55.39
46682;BME280;34101;53.430;-2.224;2023-06-24T10:57:22;101721.00;;;25.62;55.24
46682;BME280;34101;53.430;-2.224;2023-06-24T10:59:51;101716.36;;;25.55;55.10
46682;BME280;34101;53.430;-2.224;2023-06-24T11:02:19;101717.73;;;24.98;56.29
46682;BME280;34101;53.430;-2.224;2023-06-24T11:04:48;101716.82;;;24.90;55.50
46682;BME280;34101;53.430;-2.224;2023-06-24T11:07:18;101713.67;;;25.75;53.24
46682;BME280;34101;53.430;-2.224;2023-06-24T11:09:49;101717.81;;;26.11;52.09
46682;BME280;34101;53.430;-2.224;2023-06-24T11:12:17;101714.21;;;26.52;51.35
46682;BME280;34101;53.430;-2.224;2023-06-24T11:14:44;101714.52;;;26.57;50.36
46682;BME280;34101;53.430;-2.224;2023-06-24T11:17:12;101720.19;;;26.79;50.68
46682;BME280;34101;53.430;-2.224;2023-06-24T11:19:39;101718.30;;;26.65;49.96
46682;BME280;34101;53.430;-2.224;2023-06-24T11:22:07;101715.99;;;27.48;47.86
46682;BME280;34101;53.430;-2.224;2023-06-24T11:24:35;101712.13;;;28.91;44.99
46682;BME280;34101;53.430;-2.224;2023-06-24T11:27:04;101710.70;;;28.49;45.12
46682;BME280;34101;53.430;-2.224;2023-06-24T11:29:33;101707.40;;;28.51;45.57
46682;BME280;34101;53.430;-2.224;2023-06-24T11:32:02;101713.66;;;28.17;46.43
46682;BME280;34101;53.430;-2.224;2023-06-24T11:34:30;101713.66;;;28.14;45.84
46682;BME280;34101;53.430;-2.224;2023-06-24T11:37:10;101710.38;;;27.84;46.80
46682;BME280;34101;53.430;-2.224;2023-06-24T11:39:37;101707.53;;;27.47;46.95
46682;BME280;34101;53.430;-2.224;2023-06-24T11:42:06;101707.37;;;28.08;46.72
46682;BME280;34101;53.430;-2.224;2023-06-24T11:44:34;101700.76;;;28.45;45.71
46682;BME280;34101;53.430;-2.224;2023-06-24T11:47:05;101697.06;;;28.62;44.08
46682;BME280;34101;53.430;-2.224;2023-06-24T11:49:32;101696.98;;;28.96;43.62
46682;BME280;34101;53.430;-2.224;2023-06-24T11:52:14;101697.95;;;29.66;41.66
46682;BME280;34101;53.430;-2.224;2023-06-24T11:54:42;101699.50;;;28.92;42.59
46682;BME280;34101;53.430;-2.224;2023-06-24T11:57:09;101697.45;;;28.20;44.04
46682;BME280;34101;53.430;-2.224;2023-06-24T11:59:36;101693.49;;;28.25;44.71
46682;BME280;34101;53.430;-2.224;2023-06-24T12:02:14;101694.52;;;28.22;44.58
46682;BME280;34101;53.430;-2.224;2023-06-24T12:04:46;101699.06;;;27.76;45.96
46682;BME280;34101;53.430;-2.224;2023-06-24T12:07:12;101697.27;;;27.97;45.68
46682;BME280;34101;53.430;-2.224;2023-06-24T12:09:40;101685.86;;;28.83;44.75
46682;BME280;34101;53.430;-2.224;2023-06-24T12:12:08;101689.75;;;28.63;44.14
46682;BME280;34101;53.430;-2.224;2023-06-24T12:14:36;101682.84;;;29.17;42.29
46682;BME280;34101;53.430;-2.224;2023-06-24T12:17:03;101687.20;;;29.05;41.85
46682;BME280;34101;53.430;-2.224;2023-06-24T12:19:31;101692.87;;;28.04;44.47
46682;BME280;34101;53.430;-2.224;2023-06-24T12:21:58;101693.86;;;28.05;43.74
46682;BME280;34101;53.430;-2.224;2023-06-24T12:24:25;101687.64;;;28.36;44.19
46682;BME280;34101;53.430;-2.224;2023-06-24T12:26:53;101686.13;;;28.43;43.92
46682;BME280;34101;53.430;-2.224;2023-06-24T12:29:20;101691.84;;;27.70;45.22
46682;BME280;34101;53.430;-2.224;2023-06-24T12:31:48;101687.67;;;27.91;45.32
46682;BME280;34101;53.430;-2.224;2023-06-24T12:34:20;101687.64;;;27.94;45.15
46682;BME280;34101;53.430;-2.224;2023-06-24T12:36:48;101694.74;;;28.10;45.58
46682;BME280;34101;53.430;-2.224;2023-06-24T12:39:15;101697.23;;;27.72;43.90
46682;BME280;34101;53.430;-2.224;2023-06-24T12:41:48;101695.64;;;27.96;44.16
46682;BME280;34101;53.430;-2.224;2023-06-24T12:44:14;101685.20;;;28.89;42.04
46682;BME280;34101;53.430;-2.224;2023-06-24T12:46:42;101689.66;;;28.71;42.59
46682;BME280;34101;53.430;-2.224;2023-06-24T12:49:09;101691.41;;;28.36;44.34